Terminal Aerodrome Forecast
Issued by NWS Sioux Falls, SD

Home | Current Version | Previous Version | Text Only | Print | Product List | Glossary On
Versions: 1 2 3 4 5 6 7 8 9 10 11 12 13 14 15 16 17 18 19 20 21
253
FTUS43 KFSD 231412 AAA
TAFHON
TAF AMD
KHON 231412Z 2314/2412 15017G25KT P6SM BKN040
     FM231800 16018G27KT P6SM OVC022
     FM232000 10009KT 4SM -DZ BR OVC015
     FM240200 06008KT 4SM SHRA BR OVC005
     FM240600 36011KT 4SM BR OVC008=

USA.gov is the U.S. government's official web portal to all federal, state and local government web resources and services.